sensor_id;sensor_type;location;lat;lon;timestamp;P1;durP1;ratioP1;P2;durP2;ratioP2
65545;SDS011;52177;55.968;37.498;2022-08-20T00:00:20;13.13;;;7.00;;
65545;SDS011;52177;55.968;37.498;2022-08-20T00:00:53;12.55;;;6.95;;
65545;SDS011;52177;55.968;37.498;2022-08-20T00:01:25;14.60;;;7.18;;
65545;SDS011;52177;55.968;37.498;2022-08-20T00:01:55;13.65;;;7.38;;
65545;SDS011;52177;55.968;37.498;2022-08-20T00:02:26;12.25;;;7.45;;
65545;SDS011;52177;55.968;37.498;2022-08-20T00:02:58;14.63;;;7.80;;
65545;SDS011;52177;55.968;37.498;2022-08-20T00:03:31;13.57;;;7.95;;
65545;SDS011;52177;55.968;37.498;2022-08-20T00:04:04;17.80;;;7.68;;
65545;SDS011;52177;55.968;37.498;2022-08-20T00:04:34;13.02;;;7.20;;
65545;SDS011;52177;55.968;37.498;2022-08-20T00:05:05;13.65;;;8.00;;
65545;SDS011;52177;55.968;37.498;2022-08-20T00:05:40;13.65;;;7.55;;
65545;SDS011;52177;55.968;37.498;2022-08-20T00:06:17;15.25;;;8.55;;
65545;SDS011;52177;55.968;37.498;2022-08-20T00:06:49;16.50;;;8.23;;
65545;SDS011;52177;55.968;37.498;2022-08-20T00:07:19;13.52;;;8.27;;
65545;SDS011;52177;55.968;37.498;2022-08-20T00:07:50;12.25;;;8.32;;
65545;SDS011;52177;55.968;37.498;2022-08-20T00:08:21;14.38;;;8.40;;
65545;SDS011;52177;55.968;37.498;2022-08-20T00:08:52;13.55;;;9.07;;
65545;SDS011;52177;55.968;37.498;2022-08-20T00:09:22;15.07;;;8.90;;
65545;SDS011;52177;55.968;37.498;2022-08-20T00:09:53;19.25;;;8.85;;
65545;SDS011;52177;55.968;37.498;2022-08-20T00:10:24;13.80;;;8.40;;
65545;SDS011;52177;55.968;37.498;2022-08-20T00:10:56;15.30;;;9.27;;
65545;SDS011;52177;55.968;37.498;2022-08-20T00:11:28;14.68;;;8.30;;
65545;SDS011;52177;55.968;37.498;2022-08-20T00:11:59;15.13;;;9.00;;
65545;SDS011;52177;55.968;37.498;2022-08-20T00:12:30;17.02;;;9.15;;
65545;SDS011;52177;55.968;37.498;2022-08-20T00:13:01;16.02;;;8.57;;
65545;SDS011;52177;55.968;37.498;2022-08-20T00:13:35;15.40;;;8.88;;
65545;SDS011;52177;55.968;37.498;2022-08-20T00:14:11;15.43;;;8.73;;
65545;SDS011;52177;55.968;37.498;2022-08-20T00:14:42;14.23;;;8.57;;
65545;SDS011;52177;55.968;37.498;2022-08-20T00:15:12;16.58;;;8.85;;
65545;SDS011;52177;55.968;37.498;2022-08-20T00:15:44;16.10;;;8.93;;
65545;SDS011;52177;55.968;37.498;2022-08-20T00:16:16;17.92;;;9.05;;
65545;SDS011;52177;55.968;37.498;2022-08-20T00:16:48;15.63;;;8.50;;
65545;SDS011;52177;55.968;37.498;2022-08-20T00:17:19;15.45;;;8.85;;
65545;SDS011;52177;55.968;37.498;2022-08-20T00:17:50;15.35;;;8.85;;
65545;SDS011;52177;55.968;37.498;2022-08-20T00:18:21;17.15;;;8.70;;
65545;SDS011;52177;55.968;37.498;2022-08-20T00:18:52;12.50;;;8.60;;
65545;SDS011;52177;55.968;37.498;2022-08-20T00:19:23;19.05;;;9.57;;
65545;SDS011;52177;55.968;37.498;2022-08-20T00:19:54;15.32;;;8.70;;
65545;SDS011;52177;55.968;37.498;2022-08-20T00:20:25;11.43;;;8.20;;
65545;SDS011;52177;55.968;37.498;2022-08-20T00:20:58;17.00;;;9.20;;
65545;SDS011;52177;55.968;37.498;2022-08-20T00:21:30;16.15;;;8.93;;
65545;SDS011;52177;55.968;37.498;2022-08-20T00:22:00;14.20;;;8.82;;
65545;SDS011;52177;55.968;37.498;2022-08-20T00:22:30;12.93;;;8.60;;
65545;SDS011;52177;55.968;37.498;2022-08-20T00:23:01;11.60;;;8.15;;
65545;SDS011;52177;55.968;37.498;2022-08-20T00:23:31;16.33;;;8.50;;
65545;SDS011;52177;55.968;37.498;2022-08-20T00:24:02;15.68;;;8.32;;
65545;SDS011;52177;55.968;37.498;2022-08-20T00:24:33;13.55;;;8.77;;
65545;SDS011;52177;55.968;37.498;2022-08-20T00:25:04;19.50;;;8.60;;
65545;SDS011;52177;55.968;37.498;2022-08-20T00:25:36;16.70;;;8.70;;
65545;SDS011;52177;55.968;37.498;2022-08-20T00:26:07;20.25;;;8.73;;
65545;SDS011;52177;55.968;37.498;2022-08-20T00:26:39;19.23;;;8.90;;
65545;SDS011;52177;55.968;37.498;2022-08-20T00:27:10;14.68;;;8.52;;
65545;SDS011;52177;55.968;37.498;2022-08-20T00:27:40;16.33;;;8.60;;
65545;SDS011;52177;55.968;37.498;2022-08-20T00:28:11;15.93;;;8.40;;
65545;SDS011;52177;55.968;37.498;2022-08-20T00:28:42;13.93;;;8.63;;
65545;SDS011;52177;55.968;37.498;2022-08-20T00:29:13;16.30;;;8.88;;
65545;SDS011;52177;55.968;37.498;2022-08-20T00:29:44;14.93;;;8.70;;
65545;SDS011;52177;55.968;37.498;2022-08-20T00:30:15;11.50;;;8.52;;
65545;SDS011;52177;55.968;37.498;2022-08-20T00:30:45;15.60;;;8.57;;
65545;SDS011;52177;55.968;37.498;2022-08-20T00:31:17;18.02;;;9.13;;
65545;SDS011;52177;55.968;37.498;2022-08-20T00:31:49;14.50;;;8.45;;
65545;SDS011;52177;55.968;37.498;2022-08-20T00:32:20;14.23;;;8.43;;
65545;SDS011;52177;55.968;37.498;2022-08-20T00:32:51;14.55;;;8.35;;
65545;SDS011;52177;55.968;37.498;2022-08-20T00:33:26;12.93;;;8.63;;
65545;SDS011;52177;55.968;37.498;2022-08-20T00:33:57;21.35;;;8.30;;
65545;SDS011;52177;55.968;37.498;2022-08-20T00:34:27;20.00;;;8.05;;
65545;SDS011;52177;55.968;37.498;2022-08-20T00:34:58;18.65;;;8.70;;
65545;SDS011;52177;55.968;37.498;2022-08-20T00:35:29;10.05;;;8.27;;
65545;SDS011;52177;55.968;37.498;2022-08-20T00:36:02;15.30;;;8.77;;
65545;SDS011;52177;55.968;37.498;2022-08-20T00:36:36;15.40;;;8.70;;
65545;SDS011;52177;55.968;37.498;2022-08-20T00:37:06;14.15;;;8.40;;
65545;SDS011;52177;55.968;37.498;2022-08-20T00:37:37;15.45;;;9.32;;
65545;SDS011;52177;55.968;37.498;2022-08-20T00:38:08;12.93;;;7.43;;
65545;SDS011;52177;55.968;37.498;2022-08-20T00:38:39;17.45;;;8.93;;
65545;SDS011;52177;55.968;37.498;2022-08-20T00:39:12;20.33;;;9.38;;
65545;SDS011;52177;55.968;37.498;2022-08-20T00:39:42;16.27;;;8.18;;
65545;SDS011;52177;55.968;37.498;2022-08-20T00:40:14;13.70;;;8.13;;
65545;SDS011;52177;55.968;37.498;2022-08-20T00:40:54;16.10;;;9.18;;
65545;SDS011;52177;55.968;37.498;2022-08-20T00:41:27;19.58;;;8.70;;
65545;SDS011;52177;55.968;37.498;2022-08-20T00:41:58;19.40;;;8.45;;
65545;SDS011;52177;55.968;37.498;2022-08-20T00:42:29;18.90;;;8.60;;
65545;SDS011;52177;55.968;37.498;2022-08-20T00:43:00;15.52;;;8.68;;
65545;SDS011;52177;55.968;37.498;2022-08-20T00:43:37;17.00;;;8.45;;
65545;SDS011;52177;55.968;37.498;2022-08-20T00:44:47;10.88;;;8.88;;
65545;SDS011;52177;55.968;37.498;2022-08-20T00:45:18;14.43;;;8.80;;
65545;SDS011;52177;55.968;37.498;2022-08-20T00:45:50;18.55;;;8.30;;
65545;SDS011;52177;55.968;37.498;2022-08-20T00:46:24;13.10;;;8.80;;
65545;SDS011;52177;55.968;37.498;2022-08-20T00:46:56;14.63;;;9.07;;
65545;SDS011;52177;55.968;37.498;2022-08-20T00:47:27;16.13;;;8.90;;
65545;SDS011;52177;55.968;37.498;2022-08-20T00:47:57;16.38;;;8.82;;
65545;SDS011;52177;55.968;37.498;2022-08-20T00:48:30;11.85;;;9.35;;
65545;SDS011;52177;55.968;37.498;2022-08-20T00:49:03;16.30;;;9.10;;
65545;SDS011;52177;55.968;37.498;2022-08-20T00:49:37;16.33;;;9.52;;
65545;SDS011;52177;55.968;37.498;2022-08-20T00:50:09;17.15;;;9.27;;
65545;SDS011;52177;55.968;37.498;2022-08-20T00:50:41;16.15;;;8.77;;
65545;SDS011;52177;55.968;37.498;2022-08-20T00:52:07;14.75;;;9.07;;
65545;SDS011;52177;55.968;37.498;2022-08-20T00:52:42;12.45;;;8.85;;
65545;SDS011;52177;55.968;37.498;2022-08-20T00:53:17;16.50;;;9.10;;
65545;SDS011;52177;55.968;37.498;2022-08-20T00:53:49;18.63;;;9.25;;
65545;SDS011;52177;55.968;37.498;2022-08-20T00:54:23;20.10;;;9.48;;
65545;SDS011;52177;55.968;37.498;2022-08-20T00:54:55;13.52;;;8.98;;
65545;SDS011;52177;55.968;37.498;2022-08-20T00:55:29;13.73;;;9.27;;
65545;SDS011;52177;55.968;37.498;2022-08-20T00:56:00;14.05;;;9.85;;
65545;SDS011;52177;55.968;37.498;2022-08-20T00:56:31;17.90;;;9.63;;
65545;SDS011;52177;55.968;37.498;2022-08-20T00:57:23;14.55;;;10.15;;
65545;SDS011;52177;55.968;37.498;2022-08-20T00:58:00;16.23;;;9.73;;
65545;SDS011;52177;55.968;37.498;2022-08-20T00:58:35;17.60;;;9.85;;
65545;SDS011;52177;55.968;37.498;2022-08-20T00:59:08;14.70;;;9.15;;
65545;SDS011;52177;55.968;37.498;2022-08-20T00:59:41;16.77;;;10.30;;
65545;SDS011;52177;55.968;37.498;2022-08-20T01:00:18;16.58;;;9.73;;
65545;SDS011;52177;55.968;37.498;2022-08-20T01:00:52;17.65;;;9.80;;
65545;SDS011;52177;55.968;37.498;2022-08-20T01:01:22;16.75;;;9.45;;
65545;SDS011;52177;55.968;37.498;2022-08-20T01:01:53;20.35;;;10.50;;
65545;SDS011;52177;55.968;37.498;2022-08-20T01:02:24;19.83;;;9.75;;
65545;SDS011;52177;55.968;37.498;2022-08-20T01:02:58;17.02;;;10.65;;
65545;SDS011;52177;55.968;37.498;2022-08-20T01:03:29;18.13;;;10.05;;
65545;SDS011;52177;55.968;37.498;2022-08-20T01:04:00;16.92;;;10.50;;
65545;SDS011;52177;55.968;37.498;2022-08-20T01:04:32;13.68;;;9.30;;
65545;SDS011;52177;55.968;37.498;2022-08-20T01:05:04;15.02;;;10.48;;
65545;SDS011;52177;55.968;37.498;2022-08-20T01:05:39;28.75;;;10.52;;
65545;SDS011;52177;55.968;37.498;2022-08-20T01:06:11;18.67;;;10.63;;
65545;SDS011;52177;55.968;37.498;2022-08-20T01:06:41;19.85;;;10.55;;
65545;SDS011;52177;55.968;37.498;2022-08-20T01:07:13;16.88;;;10.27;;
65545;SDS011;52177;55.968;37.498;2022-08-20T01:07:44;18.92;;;11.18;;
65545;SDS011;52177;55.968;37.498;2022-08-20T01:08:18;16.55;;;10.65;;
65545;SDS011;52177;55.968;37.498;2022-08-20T01:08:53;16.05;;;10.48;;
65545;SDS011;52177;55.968;37.498;2022-08-20T01:09:23;18.80;;;10.82;;
65545;SDS011;52177;55.968;37.498;2022-08-20T01:09:54;17.55;;;10.55;;
65545;SDS011;52177;55.968;37.498;2022-08-20T01:10:26;17.75;;;10.23;;
65545;SDS011;52177;55.968;37.498;2022-08-20T01:10:58;15.10;;;10.57;;
65545;SDS011;52177;55.968;37.498;2022-08-20T01:11:39;17.70;;;10.50;;
65545;SDS011;52177;55.968;37.498;2022-08-20T01:12:10;16.52;;;10.45;;
65545;SDS011;52177;55.968;37.498;2022-08-20T01:12:43;13.30;;;10.32;;
65545;SDS011;52177;55.968;37.498;2022-08-20T01:13:17;16.23;;;10.73;;
65545;SDS011;52177;55.968;37.498;2022-08-20T01:13:49;15.60;;;11.13;;
65545;SDS011;52177;55.968;37.498;2022-08-20T01:14:20;19.05;;;11.10;;
65545;SDS011;52177;55.968;37.498;2022-08-20T01:14:51;16.05;;;10.95;;
65545;SDS011;52177;55.968;37.498;2022-08-20T01:15:22;16.70;;;10.20;;
65545;SDS011;52177;55.968;37.498;2022-08-20T01:15:55;19.75;;;11.43;;
65545;SDS011;52177;55.968;37.498;2022-08-20T01:16:28;14.95;;;10.70;;
65545;SDS011;52177;55.968;37.498;2022-08-20T01:17:02;21.73;;;11.10;;
65545;SDS011;52177;55.968;37.498;2022-08-20T01:17:39;14.60;;;10.57;;
65545;SDS011;52177;55.968;37.498;2022-08-20T01:18:18;16.35;;;10.80;;
65545;SDS011;52177;55.968;37.498;2022-08-20T01:18:54;20.38;;;11.20;;
65545;SDS011;52177;55.968;37.498;2022-08-20T01:19:37;19.08;;;11.07;;
65545;SDS011;52177;55.968;37.498;2022-08-20T01:20:12;18.77;;;11.65;;
65545;SDS011;52177;55.968;37.498;2022-08-20T01:20:47;17.52;;;10.80;;
65545;SDS011;52177;55.968;37.498;2022-08-20T01:21:20;19.02;;;11.35;;
65545;SDS011;52177;55.968;37.498;2022-08-20T01:21:57;17.83;;;11.07;;
65545;SDS011;52177;55.968;37.498;2022-08-20T01:22:31;18.65;;;11.90;;
65545;SDS011;52177;55.968;37.498;2022-08-20T01:24:28;17.58;;;11.07;;
65545;SDS011;52177;55.968;37.498;2022-08-20T01:25:09;17.77;;;11.15;;
65545;SDS011;52177;55.968;37.498;2022-08-20T01:25:49;20.52;;;11.48;;
65545;SDS011;52177;55.968;37.498;2022-08-20T01:26:35;23.15;;;11.55;;
65545;SDS011;52177;55.968;37.498;2022-08-20T01:27:08;18.35;;;11.68;;
65545;SDS011;52177;55.968;37.498;2022-08-20T01:27:39;23.23;;;11.63;;
65545;SDS011;52177;55.968;37.498;2022-08-20T01:28:11;13.98;;;11.10;;
65545;SDS011;52177;55.968;37.498;2022-08-20T01:28:55;20.27;;;12.15;;
65545;SDS011;52177;55.968;37.498;2022-08-20T01:29:28;16.10;;;11.52;;
65545;SDS011;52177;55.968;37.498;2022-08-20T01:30:05;20.98;;;11.80;;
65545;SDS011;52177;55.968;37.498;2022-08-20T01:30:36;18.17;;;11.77;;
65545;SDS011;52177;55.968;37.498;2022-08-20T01:31:08;14.82;;;11.48;;
65545;SDS011;52177;55.968;37.498;2022-08-20T01:31:43;17.05;;;11.50;;
65545;SDS011;52177;55.968;37.498;2022-08-20T01:32:14;19.70;;;11.98;;
65545;SDS011;52177;55.968;37.498;2022-08-20T01:32:45;20.48;;;11.95;;
65545;SDS011;52177;55.968;37.498;2022-08-20T01:33:16;16.98;;;12.13;;
65545;SDS011;52177;55.968;37.498;2022-08-20T01:33:48;18.17;;;12.07;;
65545;SDS011;52177;55.968;37.498;2022-08-20T01:34:21;20.15;;;11.43;;
65545;SDS011;52177;55.968;37.498;2022-08-20T01:34:51;22.25;;;11.65;;
65545;SDS011;52177;55.968;37.498;2022-08-20T01:35:22;19.77;;;11.95;;
65545;SDS011;52177;55.968;37.498;2022-08-20T01:35:53;18.15;;;12.00;;
65545;SDS011;52177;55.968;37.498;2022-08-20T01:36:25;18.35;;;11.45;;
65545;SDS011;52177;55.968;37.498;2022-08-20T01:37:01;17.52;;;11.13;;
65545;SDS011;52177;55.968;37.498;2022-08-20T01:37:32;18.73;;;11.80;;
65545;SDS011;52177;55.968;37.498;2022-08-20T01:38:03;22.48;;;12.00;;
65545;SDS011;52177;55.968;37.498;2022-08-20T01:38:34;18.10;;;12.18;;
65545;SDS011;52177;55.968;37.498;2022-08-20T01:39:06;23.60;;;13.13;;
65545;SDS011;52177;55.968;37.498;2022-08-20T01:39:38;19.92;;;11.90;;
65545;SDS011;52177;55.968;37.498;2022-08-20T01:40:09;23.98;;;11.68;;
65545;SDS011;52177;55.968;37.498;2022-08-20T01:40:47;22.55;;;11.50;;
65545;SDS011;52177;55.968;37.498;2022-08-20T01:43:06;23.55;;;12.02;;
65545;SDS011;52177;55.968;37.498;2022-08-20T01:43:38;17.33;;;12.07;;
65545;SDS011;52177;55.968;37.498;2022-08-20T01:44:10;19.58;;;11.73;;
65545;SDS011;52177;55.968;37.498;2022-08-20T01:44:42;16.05;;;11.57;;
65545;SDS011;52177;55.968;37.498;2022-08-20T01:45:16;17.63;;;11.30;;
65545;SDS011;52177;55.968;37.498;2022-08-20T01:45:46;16.05;;;11.27;;
65545;SDS011;52177;55.968;37.498;2022-08-20T01:46:16;19.48;;;11.40;;
65545;SDS011;52177;55.968;37.498;2022-08-20T01:46:48;19.95;;;11.98;;
65545;SDS011;52177;55.968;37.498;2022-08-20T01:47:30;21.05;;;11.52;;
65545;SDS011;52177;55.968;37.498;2022-08-20T01:48:01;18.50;;;11.77;;
65545;SDS011;52177;55.968;37.498;2022-08-20T01:48:32;18.55;;;11.65;;
65545;SDS011;52177;55.968;37.498;2022-08-20T01:49:09;17.45;;;11.23;;
65545;SDS011;52177;55.968;37.498;2022-08-20T01:49:52;21.40;;;11.68;;
65545;SDS011;52177;55.968;37.498;2022-08-20T01:50:26;16.13;;;11.30;;
65545;SDS011;52177;55.968;37.498;2022-08-20T01:51:38;19.35;;;11.63;;
65545;SDS011;52177;55.968;37.498;2022-08-20T01:52:10;18.00;;;11.52;;
65545;SDS011;52177;55.968;37.498;2022-08-20T01:53:54;23.75;;;12.15;;
65545;SDS011;52177;55.968;37.498;2022-08-20T01:54:26;19.17;;;11.43;;
65545;SDS011;52177;55.968;37.498;2022-08-20T01:54:57;17.83;;;12.40;;
65545;SDS011;52177;55.968;37.498;2022-08-20T01:55:28;20.55;;;12.02;;
65545;SDS011;52177;55.968;37.498;2022-08-20T01:56:04;16.95;;;11.63;;
65545;SDS011;52177;55.968;37.498;2022-08-20T01:56:49;19.30;;;12.27;;
65545;SDS011;52177;55.968;37.498;2022-08-20T01:57:24;17.23;;;11.70;;
65545;SDS011;52177;55.968;37.498;2022-08-20T01:57:56;19.25;;;11.82;;
65545;SDS011;52177;55.968;37.498;2022-08-20T01:58:28;21.60;;;12.55;;
65545;SDS011;52177;55.968;37.498;2022-08-20T01:58:59;16.30;;;11.73;;
65545;SDS011;52177;55.968;37.498;2022-08-20T01:59:31;19.83;;;12.07;;
65545;SDS011;52177;55.968;37.498;2022-08-20T02:00:04;16.27;;;11.63;;
65545;SDS011;52177;55.968;37.498;2022-08-20T02:00:38;17.23;;;12.15;;
65545;SDS011;52177;55.968;37.498;2022-08-20T02:01:17;17.52;;;11.88;;
65545;SDS011;52177;55.968;37.498;2022-08-20T02:01:51;18.50;;;12.18;;
65545;SDS011;52177;55.968;37.498;2022-08-20T02:02:24;19.80;;;11.77;;
65545;SDS011;52177;55.968;37.498;2022-08-20T02:02:55;16.23;;;11.95;;
65545;SDS011;52177;55.968;37.498;2022-08-20T02:03:26;16.85;;;11.95;;
65545;SDS011;52177;55.968;37.498;2022-08-20T02:03:57;19.85;;;12.68;;
65545;SDS011;52177;55.968;37.498;2022-08-20T02:04:29;18.98;;;11.77;;
65545;SDS011;52177;55.968;37.498;2022-08-20T02:05:00;16.80;;;11.40;;
65545;SDS011;52177;55.968;37.498;2022-08-20T02:05:31;16.58;;;12.52;;
65545;SDS011;52177;55.968;37.498;2022-08-20T02:06:03;15.65;;;10.88;;
65545;SDS011;52177;55.968;37.498;2022-08-20T02:06:35;20.98;;;11.88;;
65545;SDS011;52177;55.968;37.498;2022-08-20T02:07:13;23.05;;;11.70;;
65545;SDS011;52177;55.968;37.498;2022-08-20T02:07:46;19.38;;;11.20;;
65545;SDS011;52177;55.968;37.498;2022-08-20T02:08:17;21.15;;;11.05;;
65545;SDS011;52177;55.968;37.498;2022-08-20T02:08:47;16.80;;;11.50;;
65545;SDS011;52177;55.968;37.498;2022-08-20T02:09:18;14.52;;;11.55;;
65545;SDS011;52177;55.968;37.498;2022-08-20T02:09:49;14.00;;;10.75;;
65545;SDS011;52177;55.968;37.498;2022-08-20T02:10:19;21.85;;;12.05;;
65545;SDS011;52177;55.968;37.498;2022-08-20T02:10:52;15.18;;;11.95;;
65545;SDS011;52177;55.968;37.498;2022-08-20T02:11:25;17.40;;;11.43;;
65545;SDS011;52177;55.968;37.498;2022-08-20T02:11:57;16.65;;;10.75;;
65545;SDS011;52177;55.968;37.498;2022-08-20T02:12:28;23.30;;;11.13;;
65545;SDS011;52177;55.968;37.498;2022-08-20T02:12:59;20.27;;;11.48;;
65545;SDS011;52177;55.968;37.498;2022-08-20T02:13:30;17.02;;;11.90;;
65545;SDS011;52177;55.968;37.498;2022-08-20T02:14:02;23.77;;;11.38;;
65545;SDS011;52177;55.968;37.498;2022-08-20T02:14:39;20.58;;;11.38;;
65545;SDS011;52177;55.968;37.498;2022-08-20T02:15:11;17.50;;;11.93;;
65545;SDS011;52177;55.968;37.498;2022-08-20T02:15:42;18.02;;;11.00;;
65545;SDS011;52177;55.968;37.498;2022-08-20T02:16:13;19.83;;;11.65;;
65545;SDS011;52177;55.968;37.498;2022-08-20T02:16:44;20.17;;;11.82;;
65545;SDS011;52177;55.968;37.498;2022-08-20T02:17:16;20.20;;;11.40;;
65545;SDS011;52177;55.968;37.498;2022-08-20T02:17:48;24.25;;;10.93;;
65545;SDS011;52177;55.968;37.498;2022-08-20T02:18:18;18.35;;;10.55;;
65545;SDS011;52177;55.968;37.498;2022-08-20T02:18:50;17.42;;;11.30;;
65545;SDS011;52177;55.968;37.498;2022-08-20T02:19:25;18.33;;;10.77;;
65545;SDS011;52177;55.968;37.498;2022-08-20T02:20:02;14.43;;;11.13;;
65545;SDS011;52177;55.968;37.498;2022-08-20T02:20:37;19.42;;;11.73;;
65545;SDS011;52177;55.968;37.498;2022-08-20T02:21:08;16.73;;;11.60;;
65545;SDS011;52177;55.968;37.498;2022-08-20T02:21:41;21.02;;;11.27;;
65545;SDS011;52177;55.968;37.498;2022-08-20T02:22:56;16.38;;;11.38;;
65545;SDS011;52177;55.968;37.498;2022-08-20T02:23:28;16.90;;;11.18;;
65545;SDS011;52177;55.968;37.498;2022-08-20T02:23:58;17.88;;;11.25;;
65545;SDS011;52177;55.968;37.498;2022-08-20T02:24:29;19.35;;;11.30;;
65545;SDS011;52177;55.968;37.498;2022-08-20T02:24:59;17.98;;;11.23;;
65545;SDS011;52177;55.968;37.498;2022-08-20T02:25:30;18.60;;;11.20;;
65545;SDS011;52177;55.968;37.498;2022-08-20T02:26:03;16.10;;;11.13;;
65545;SDS011;52177;55.968;37.498;2022-08-20T02:26:36;17.95;;;11.23;;
65545;SDS011;52177;55.968;37.498;2022-08-20T02:27:07;18.67;;;11.07;;
65545;SDS011;52177;55.968;37.498;2022-08-20T02:27:39;16.20;;;10.27;;
65545;SDS011;52177;55.968;37.498;2022-08-20T02:28:12;19.98;;;11.48;;
65545;SDS011;52177;55.968;37.498;2022-08-20T02:28:45;13.05;;;11.38;;
65545;SDS011;52177;55.968;37.498;2022-08-20T02:29:17;15.43;;;10.52;;
65545;SDS011;52177;55.968;37.498;2022-08-20T02:29:48;15.27;;;9.98;;
65545;SDS011;52177;55.968;37.498;2022-08-20T02:30:20;21.02;;;11.32;;
65545;SDS011;52177;55.968;37.498;2022-08-20T02:30:56;14.60;;;10.82;;
65545;SDS011;52177;55.968;37.498;2022-08-20T02:31:27;18.20;;;11.05;;
65545;SDS011;52177;55.968;37.498;2022-08-20T02:31:57;17.42;;;11.23;;
65545;SDS011;52177;55.968;37.498;2022-08-20T02:32:28;17.05;;;11.20;;
65545;SDS011;52177;55.968;37.498;2022-08-20T02:32:59;17.77;;;10.73;;
65545;SDS011;52177;55.968;37.498;2022-08-20T02:33:31;17.10;;;10.60;;
65545;SDS011;52177;55.968;37.498;2022-08-20T02:34:02;15.07;;;10.93;;
65545;SDS011;52177;55.968;37.498;2022-08-20T02:34:34;16.42;;;10.30;;
65545;SDS011;52177;55.968;37.498;2022-08-20T02:35:06;16.55;;;10.38;;
65545;SDS011;52177;55.968;37.498;2022-08-20T02:35:40;15.57;;;10.18;;
65545;SDS011;52177;55.968;37.498;2022-08-20T02:36:12;16.02;;;10.38;;
65545;SDS011;52177;55.968;37.498;2022-08-20T02:36:44;19.30;;;10.38;;
65545;SDS011;52177;55.968;37.498;2022-08-20T02:37:15;17.88;;;11.20;;
65545;SDS011;52177;55.968;37.498;2022-08-20T02:37:47;19.25;;;10.88;;
65545;SDS011;52177;55.968;37.498;2022-08-20T02:38:17;16.85;;;11.00;;
65545;SDS011;52177;55.968;37.498;2022-08-20T02:38:48;24.98;;;11.77;;
65545;SDS011;52177;55.968;37.498;2022-08-20T02:39:18;15.80;;;10.43;;
65545;SDS011;52177;55.968;37.498;2022-08-20T02:39:49;16.23;;;10.52;;
65545;SDS011;52177;55.968;37.498;2022-08-20T02:40:20;15.90;;;10.35;;
65545;SDS011;52177;55.968;37.498;2022-08-20T02:40:55;16.00;;;10.48;;
65545;SDS011;52177;55.968;37.498;2022-08-20T02:41:25;13.10;;;10.27;;
65545;SDS011;52177;55.968;37.498;2022-08-20T02:41:56;13.27;;;10.40;;
65545;SDS011;52177;55.968;37.498;2022-08-20T02:42:26;16.27;;;10.38;;
65545;SDS011;52177;55.968;37.498;2022-08-20T02:42:58;18.63;;;10.63;;
65545;SDS011;52177;55.968;37.498;2022-08-20T02:43:29;14.05;;;10.90;;
65545;SDS011;52177;55.968;37.498;2022-08-20T02:44:01;17.17;;;10.88;;
65545;SDS011;52177;55.968;37.498;2022-08-20T02:44:32;18.45;;;10.98;;
65545;SDS011;52177;55.968;37.498;2022-08-20T02:45:03;16.13;;;10.48;;
65545;SDS011;52177;55.968;37.498;2022-08-20T02:45:35;15.85;;;10.23;;
65545;SDS011;52177;55.968;37.498;2022-08-20T02:46:07;15.07;;;10.40;;
65545;SDS011;52177;55.968;37.498;2022-08-20T02:46:37;17.40;;;11.23;;
65545;SDS011;52177;55.968;37.498;2022-08-20T02:47:08;17.48;;;10.02;;
65545;SDS011;52177;55.968;37.498;2022-08-20T02:47:38;18.75;;;9.93;;
65545;SDS011;52177;55.968;37.498;2022-08-20T02:48:10;15.35;;;10.10;;
65545;SDS011;52177;55.968;37.498;2022-08-20T02:48:47;16.98;;;10.27;;
65545;SDS011;52177;55.968;37.498;2022-08-20T02:49:18;17.40;;;9.88;;
65545;SDS011;52177;55.968;37.498;2022-08-20T02:49:48;16.50;;;10.25;;
65545;SDS011;52177;55.968;37.498;2022-08-20T02:50:20;14.18;;;9.98;;
65545;SDS011;52177;55.968;37.498;2022-08-20T02:50:54;17.83;;;10.65;;
65545;SDS011;52177;55.968;37.498;2022-08-20T02:51:26;18.33;;;10.18;;
65545;SDS011;52177;55.968;37.498;2022-08-20T02:51:57;17.55;;;10.48;;
65545;SDS011;52177;55.968;37.498;2022-08-20T02:52:27;15.88;;;9.93;;
65545;SDS011;52177;55.968;37.498;2022-08-20T02:52:58;17.40;;;10.10;;
65545;SDS011;52177;55.968;37.498;2022-08-20T02:53:29;17.50;;;10.45;;
65545;SDS011;52177;55.968;37.498;2022-08-20T02:54:02;23.88;;;10.57;;
65545;SDS011;52177;55.968;37.498;2022-08-20T02:54:32;18.15;;;10.40;;
65545;SDS011;52177;55.968;37.498;2022-08-20T02:55:03;15.82;;;10.57;;
65545;SDS011;52177;55.968;37.498;2022-08-20T02:55:34;17.95;;;10.13;;
65545;SDS011;52177;55.968;37.498;2022-08-20T02:56:04;15.18;;;10.00;;
65545;SDS011;52177;55.968;37.498;2022-08-20T02:56:36;18.98;;;10.65;;
65545;SDS011;52177;55.968;37.498;2022-08-20T02:57:10;12.90;;;10.07;;
65545;SDS011;52177;55.968;37.498;2022-08-20T02:57:42;18.65;;;10.48;;
65545;SDS011;52177;55.968;37.498;2022-08-20T02:58:13;14.15;;;10.00;;
65545;SDS011;52177;55.968;37.498;2022-08-20T02:58:44;15.73;;;10.25;;
65545;SDS011;52177;55.968;37.498;2022-08-20T02:59:15;21.17;;;10.68;;
65545;SDS011;52177;55.968;37.498;2022-08-20T02:59:47;16.10;;;10.23;;
65545;SDS011;52177;55.968;37.498;2022-08-20T03:00:19;14.80;;;10.13;;
65545;SDS011;52177;55.968;37.498;2022-08-20T03:00:50;16.25;;;10.25;;
65545;SDS011;52177;55.968;37.498;2022-08-20T03:01:21;15.18;;;10.15;;
65545;SDS011;52177;55.968;37.498;2022-08-20T03:01:52;19.15;;;11.00;;
65545;SDS011;52177;55.968;37.498;2022-08-20T03:02:22;15.95;;;10.32;;
65545;SDS011;52177;55.968;37.498;2022-08-20T03:02:52;14.68;;;10.80;;
65545;SDS011;52177;55.968;37.498;2022-08-20T03:03:23;18.10;;;10.27;;
65545;SDS011;52177;55.968;37.498;2022-08-20T03:03:54;15.82;;;10.38;;
65545;SDS011;52177;55.968;37.498;2022-08-20T03:04:27;21.23;;;9.85;;
65545;SDS011;52177;55.968;37.498;2022-08-20T03:04:59;16.45;;;9.82;;
65545;SDS011;52177;55.968;37.498;2022-08-20T03:05:29;15.35;;;10.65;;
65545;SDS011;52177;55.968;37.498;2022-08-20T03:06:01;17.75;;;10.73;;
65545;SDS011;52177;55.968;37.498;2022-08-20T03:06:31;14.80;;;9.68;;
65545;SDS011;52177;55.968;37.498;2022-08-20T03:07:03;19.17;;;10.70;;
65545;SDS011;52177;55.968;37.498;2022-08-20T03:07:44;19.33;;;10.90;;
65545;SDS011;52177;55.968;37.498;2022-08-20T03:08:17;15.05;;;11.20;;
65545;SDS011;52177;55.968;37.498;2022-08-20T03:08:48;20.33;;;10.30;;
65545;SDS011;52177;55.968;37.498;2022-08-20T03:09:18;14.48;;;10.90;;
65545;SDS011;52177;55.968;37.498;2022-08-20T03:09:49;16.42;;;10.57;;
65545;SDS011;52177;55.968;37.498;2022-08-20T03:10:23;18.15;;;10.77;;
65545;SDS011;52177;55.968;37.498;2022-08-20T03:10:56;14.73;;;10.40;;
65545;SDS011;52177;55.968;37.498;2022-08-20T03:11:26;17.02;;;11.32;;
65545;SDS011;52177;55.968;37.498;2022-08-20T03:11:57;13.77;;;10.98;;
65545;SDS011;52177;55.968;37.498;2022-08-20T03:12:28;18.52;;;11.57;;
65545;SDS011;52177;55.968;37.498;2022-08-20T03:12:59;17.55;;;11.27;;
65545;SDS011;52177;55.968;37.498;2022-08-20T03:13:31;15.40;;;10.52;;
65545;SDS011;52177;55.968;37.498;2022-08-20T03:14:02;24.02;;;11.70;;
65545;SDS011;52177;55.968;37.498;2022-08-20T03:14:32;14.13;;;11.02;;
65545;SDS011;52177;55.968;37.498;2022-08-20T03:15:05;17.30;;;10.90;;